sensor_id;sensor_type;location;lat;lon;timestamp;temperature;humidity
13458;DHT22;6801;53.018;11.560;2023-07-29T00:00:04;20.50;76.10
13458;DHT22;6801;53.018;11.560;2023-07-29T00:02:38;20.50;76.40
13458;DHT22;6801;53.018;11.560;2023-07-29T00:05:05;20.50;76.60
13458;DHT22;6801;53.018;11.560;2023-07-29T00:07:34;20.50;76.50
13458;DHT22;6801;53.018;11.560;2023-07-29T00:10:01;20.50;76.40
13458;DHT22;6801;53.018;11.560;2023-07-29T00:12:28;20.50;76.40
13458;DHT22;6801;53.018;11.560;2023-07-29T00:14:55;20.50;76.50
13458;DHT22;6801;53.018;11.560;2023-07-29T00:17:22;20.50;76.80
13458;DHT22;6801;53.018;11.560;2023-07-29T00:19:49;20.50;77.00
13458;DHT22;6801;53.018;11.560;2023-07-29T00:22:16;20.50;76.80
13458;DHT22;6801;53.018;11.560;2023-07-29T00:24:45;20.50;76.80
13458;DHT22;6801;53.018;11.560;2023-07-29T00:27:17;20.50;76.80
13458;DHT22;6801;53.018;11.560;2023-07-29T00:29:44;20.50;76.70
13458;DHT22;6801;53.018;11.560;2023-07-29T00:32:13;20.50;76.80
13458;DHT22;6801;53.018;11.560;2023-07-29T00:34:40;20.50;77.00
13458;DHT22;6801;53.018;11.560;2023-07-29T00:37:07;20.50;76.90
13458;DHT22;6801;53.018;11.560;2023-07-29T00:39:36;20.50;76.80
13458;DHT22;6801;53.018;11.560;2023-07-29T00:42:05;20.40;76.80
13458;DHT22;6801;53.018;11.560;2023-07-29T00:44:32;20.40;76.90
13458;DHT22;6801;53.018;11.560;2023-07-29T00:47:01;20.40;76.80
13458;DHT22;6801;53.018;11.560;2023-07-29T00:49:29;20.40;77.10
13458;DHT22;6801;53.018;11.560;2023-07-29T00:51:56;20.40;77.40
13458;DHT22;6801;53.018;11.560;2023-07-29T00:54:24;20.40;77.40
13458;DHT22;6801;53.018;11.560;2023-07-29T00:56:51;20.30;77.20
13458;DHT22;6801;53.018;11.560;2023-07-29T00:59:20;20.40;77.50
13458;DHT22;6801;53.018;11.560;2023-07-29T01:01:47;20.40;77.70
13458;DHT22;6801;53.018;11.560;2023-07-29T01:04:15;20.40;77.60
13458;DHT22;6801;53.018;11.560;2023-07-29T01:06:46;20.40;77.60
13458;DHT22;6801;53.018;11.560;2023-07-29T01:09:24;20.30;77.70
13458;DHT22;6801;53.018;11.560;2023-07-29T01:11:57;20.30;77.60
13458;DHT22;6801;53.018;11.560;2023-07-29T01:14:33;20.30;77.70
13458;DHT22;6801;53.018;11.560;2023-07-29T01:17:03;20.40;78.20
13458;DHT22;6801;53.018;11.560;2023-07-29T01:19:43;20.40;78.10
13458;DHT22;6801;53.018;11.560;2023-07-29T01:22:16;20.40;78.30
13458;DHT22;6801;53.018;11.560;2023-07-29T01:24:44;20.40;78.30
13458;DHT22;6801;53.018;11.560;2023-07-29T01:27:11;20.40;78.50
13458;DHT22;6801;53.018;11.560;2023-07-29T01:29:40;20.30;78.60
13458;DHT22;6801;53.018;11.560;2023-07-29T01:32:10;20.30;78.40
13458;DHT22;6801;53.018;11.560;2023-07-29T01:34:43;20.30;78.20
13458;DHT22;6801;53.018;11.560;2023-07-29T01:37:15;20.30;78.00
13458;DHT22;6801;53.018;11.560;2023-07-29T01:39:46;20.30;78.00
13458;DHT22;6801;53.018;11.560;2023-07-29T01:42:14;20.20;78.10
13458;DHT22;6801;53.018;11.560;2023-07-29T01:44:41;20.20;78.10
13458;DHT22;6801;53.018;11.560;2023-07-29T01:47:08;20.20;78.10
13458;DHT22;6801;53.018;11.560;2023-07-29T01:49:35;20.20;78.00
13458;DHT22;6801;53.018;11.560;2023-07-29T01:52:02;20.20;78.10
13458;DHT22;6801;53.018;11.560;2023-07-29T01:54:29;20.20;78.20
13458;DHT22;6801;53.018;11.560;2023-07-29T01:56:58;20.20;78.10
13458;DHT22;6801;53.018;11.560;2023-07-29T01:59:25;20.20;78.00
13458;DHT22;6801;53.018;11.560;2023-07-29T02:01:52;20.10;78.00
13458;DHT22;6801;53.018;11.560;2023-07-29T02:04:19;20.10;78.00
13458;DHT22;6801;53.018;11.560;2023-07-29T02:06:46;20.10;78.30
13458;DHT22;6801;53.018;11.560;2023-07-29T02:09:13;20.10;78.20
13458;DHT22;6801;53.018;11.560;2023-07-29T02:11:40;20.10;78.10
13458;DHT22;6801;53.018;11.560;2023-07-29T02:14:09;20.10;78.30
13458;DHT22;6801;53.018;11.560;2023-07-29T02:16:36;20.10;78.40
13458;DHT22;6801;53.018;11.560;2023-07-29T02:19:04;20.10;78.40
13458;DHT22;6801;53.018;11.560;2023-07-29T02:21:31;20.00;78.60
13458;DHT22;6801;53.018;11.560;2023-07-29T02:23:58;20.10;78.60
13458;DHT22;6801;53.018;11.560;2023-07-29T02:26:25;20.00;78.70
13458;DHT22;6801;53.018;11.560;2023-07-29T02:28:52;20.00;78.50
13458;DHT22;6801;53.018;11.560;2023-07-29T02:31:23;20.00;78.50
13458;DHT22;6801;53.018;11.560;2023-07-29T02:33:50;20.00;78.40
13458;DHT22;6801;53.018;11.560;2023-07-29T02:36:18;20.00;78.40
13458;DHT22;6801;53.018;11.560;2023-07-29T02:38:45;20.00;78.30
13458;DHT22;6801;53.018;11.560;2023-07-29T02:41:13;20.00;78.30
13458;DHT22;6801;53.018;11.560;2023-07-29T02:43:42;19.90;78.30
13458;DHT22;6801;53.018;11.560;2023-07-29T02:46:09;19.90;78.50
13458;DHT22;6801;53.018;11.560;2023-07-29T02:48:38;19.80;78.60
13458;DHT22;6801;53.018;11.560;2023-07-29T02:51:05;19.80;78.70
13458;DHT22;6801;53.018;11.560;2023-07-29T02:53:32;19.80;78.60
13458;DHT22;6801;53.018;11.560;2023-07-29T02:56:02;19.80;78.70
13458;DHT22;6801;53.018;11.560;2023-07-29T02:58:29;19.70;78.80
13458;DHT22;6801;53.018;11.560;2023-07-29T03:01:00;19.70;78.80
13458;DHT22;6801;53.018;11.560;2023-07-29T03:03:27;19.70;78.70
13458;DHT22;6801;53.018;11.560;2023-07-29T03:05:59;19.70;78.40
13458;DHT22;6801;53.018;11.560;2023-07-29T03:08:26;19.70;78.40
13458;DHT22;6801;53.018;11.560;2023-07-29T03:10:54;19.70;78.30
13458;DHT22;6801;53.018;11.560;2023-07-29T03:13:21;19.60;78.40
13458;DHT22;6801;53.018;11.560;2023-07-29T03:15:48;19.60;78.50
13458;DHT22;6801;53.018;11.560;2023-07-29T03:18:15;19.60;78.50
13458;DHT22;6801;53.018;11.560;2023-07-29T03:20:42;19.60;78.50
13458;DHT22;6801;53.018;11.560;2023-07-29T03:23:11;19.50;78.60
13458;DHT22;6801;53.018;11.560;2023-07-29T03:25:38;19.50;78.50
13458;DHT22;6801;53.018;11.560;2023-07-29T03:28:05;19.50;78.50
13458;DHT22;6801;53.018;11.560;2023-07-29T03:30:32;19.50;78.40
13458;DHT22;6801;53.018;11.560;2023-07-29T03:32:59;19.50;78.30
13458;DHT22;6801;53.018;11.560;2023-07-29T03:35:26;19.50;78.10
13458;DHT22;6801;53.018;11.560;2023-07-29T03:37:53;19.50;78.00
13458;DHT22;6801;53.018;11.560;2023-07-29T03:40:21;19.40;77.90
13458;DHT22;6801;53.018;11.560;2023-07-29T03:42:48;19.40;77.90
13458;DHT22;6801;53.018;11.560;2023-07-29T03:45:15;19.40;77.70
13458;DHT22;6801;53.018;11.560;2023-07-29T03:47:42;19.40;77.70
13458;DHT22;6801;53.018;11.560;2023-07-29T03:50:10;19.30;77.60
13458;DHT22;6801;53.018;11.560;2023-07-29T03:52:37;19.30;77.70
13458;DHT22;6801;53.018;11.560;2023-07-29T03:55:04;19.30;77.70
13458;DHT22;6801;53.018;11.560;2023-07-29T03:57:33;19.30;77.70
13458;DHT22;6801;53.018;11.560;2023-07-29T03:59:59;19.30;77.80
13458;DHT22;6801;53.018;11.560;2023-07-29T04:02:28;19.30;77.80
13458;DHT22;6801;53.018;11.560;2023-07-29T04:04:55;19.30;77.90
13458;DHT22;6801;53.018;11.560;2023-07-29T04:07:23;19.30;77.80
13458;DHT22;6801;53.018;11.560;2023-07-29T04:09:50;19.20;77.80
13458;DHT22;6801;53.018;11.560;2023-07-29T04:12:17;19.20;77.80
13458;DHT22;6801;53.018;11.560;2023-07-29T04:14:48;19.20;78.00
13458;DHT22;6801;53.018;11.560;2023-07-29T04:17:16;19.20;77.80
13458;DHT22;6801;53.018;11.560;2023-07-29T04:19:42;19.20;77.90
13458;DHT22;6801;53.018;11.560;2023-07-29T04:22:10;19.20;77.90
13458;DHT22;6801;53.018;11.560;2023-07-29T04:24:37;19.20;78.00
13458;DHT22;6801;53.018;11.560;2023-07-29T04:27:04;19.20;78.00
13458;DHT22;6801;53.018;11.560;2023-07-29T04:29:31;19.20;78.10
13458;DHT22;6801;53.018;11.560;2023-07-29T04:32:00;19.20;78.10
13458;DHT22;6801;53.018;11.560;2023-07-29T04:34:27;19.20;78.20
13458;DHT22;6801;53.018;11.560;2023-07-29T04:36:54;19.20;78.20
13458;DHT22;6801;53.018;11.560;2023-07-29T04:39:21;19.20;78.30
13458;DHT22;6801;53.018;11.560;2023-07-29T04:41:48;19.20;78.40
13458;DHT22;6801;53.018;11.560;2023-07-29T04:44:15;19.20;78.50
13458;DHT22;6801;53.018;11.560;2023-07-29T04:46:42;19.30;78.50
13458;DHT22;6801;53.018;11.560;2023-07-29T04:49:11;19.30;78.60
13458;DHT22;6801;53.018;11.560;2023-07-29T04:51:38;19.30;78.70
13458;DHT22;6801;53.018;11.560;2023-07-29T04:54:05;19.30;78.60
13458;DHT22;6801;53.018;11.560;2023-07-29T04:56:32;19.30;78.60
13458;DHT22;6801;53.018;11.560;2023-07-29T04:58:59;19.40;78.70
13458;DHT22;6801;53.018;11.560;2023-07-29T05:01:26;19.40;78.70
13458;DHT22;6801;53.018;11.560;2023-07-29T05:03:53;19.40;78.70
13458;DHT22;6801;53.018;11.560;2023-07-29T05:06:21;19.40;78.70
13458;DHT22;6801;53.018;11.560;2023-07-29T05:08:48;19.40;78.80
13458;DHT22;6801;53.018;11.560;2023-07-29T05:11:15;19.40;78.80
13458;DHT22;6801;53.018;11.560;2023-07-29T05:13:42;19.40;78.80
13458;DHT22;6801;53.018;11.560;2023-07-29T05:16:11;19.50;78.90
13458;DHT22;6801;53.018;11.560;2023-07-29T05:18:38;19.50;79.00
13458;DHT22;6801;53.018;11.560;2023-07-29T05:21:05;19.50;79.10
13458;DHT22;6801;53.018;11.560;2023-07-29T05:23:33;19.50;79.20
13458;DHT22;6801;53.018;11.560;2023-07-29T05:26:00;19.50;79.20
13458;DHT22;6801;53.018;11.560;2023-07-29T05:28:27;19.50;79.20
13458;DHT22;6801;53.018;11.560;2023-07-29T05:30:54;19.60;79.20
13458;DHT22;6801;53.018;11.560;2023-07-29T05:33:21;19.60;79.30
13458;DHT22;6801;53.018;11.560;2023-07-29T05:35:48;19.60;79.20
13458;DHT22;6801;53.018;11.560;2023-07-29T05:38:15;19.60;79.20
13458;DHT22;6801;53.018;11.560;2023-07-29T05:40:44;19.70;79.20
13458;DHT22;6801;53.018;11.560;2023-07-29T05:43:11;19.70;79.10
13458;DHT22;6801;53.018;11.560;2023-07-29T05:45:38;19.70;79.20
13458;DHT22;6801;53.018;11.560;2023-07-29T05:48:05;19.70;79.10
13458;DHT22;6801;53.018;11.560;2023-07-29T05:50:32;19.70;79.20
13458;DHT22;6801;53.018;11.560;2023-07-29T05:53:00;19.80;79.20
13458;DHT22;6801;53.018;11.560;2023-07-29T05:55:27;19.80;79.20
13458;DHT22;6801;53.018;11.560;2023-07-29T05:57:55;19.80;79.20
13458;DHT22;6801;53.018;11.560;2023-07-29T06:00:23;19.80;79.20
13458;DHT22;6801;53.018;11.560;2023-07-29T06:02:50;19.80;79.10
13458;DHT22;6801;53.018;11.560;2023-07-29T06:05:20;19.90;79.20
13458;DHT22;6801;53.018;11.560;2023-07-29T06:07:47;19.90;79.10
13458;DHT22;6801;53.018;11.560;2023-07-29T06:10:15;19.90;79.00
13458;DHT22;6801;53.018;11.560;2023-07-29T06:12:44;20.00;79.20
13458;DHT22;6801;53.018;11.560;2023-07-29T06:15:12;20.00;79.40
13458;DHT22;6801;53.018;11.560;2023-07-29T06:17:41;20.00;79.50
13458;DHT22;6801;53.018;11.560;2023-07-29T06:20:08;20.00;79.60
13458;DHT22;6801;53.018;11.560;2023-07-29T06:22:36;20.10;79.90
13458;DHT22;6801;53.018;11.560;2023-07-29T06:25:04;20.10;79.90
13458;DHT22;6801;53.018;11.560;2023-07-29T06:27:31;20.10;80.10
13458;DHT22;6801;53.018;11.560;2023-07-29T06:29:58;20.20;80.10
13458;DHT22;6801;53.018;11.560;2023-07-29T06:32:26;20.20;80.10
13458;DHT22;6801;53.018;11.560;2023-07-29T06:34:53;20.20;80.20
13458;DHT22;6801;53.018;11.560;2023-07-29T06:37:20;20.30;80.20
13458;DHT22;6801;53.018;11.560;2023-07-29T06:39:47;20.30;80.10
13458;DHT22;6801;53.018;11.560;2023-07-29T06:42:14;20.30;80.00
13458;DHT22;6801;53.018;11.560;2023-07-29T06:44:41;20.30;80.10
13458;DHT22;6801;53.018;11.560;2023-07-29T06:47:11;20.40;80.00
13458;DHT22;6801;53.018;11.560;2023-07-29T06:49:40;20.40;79.90
13458;DHT22;6801;53.018;11.560;2023-07-29T06:52:07;20.40;79.90
13458;DHT22;6801;53.018;11.560;2023-07-29T06:54:34;20.40;79.90
13458;DHT22;6801;53.018;11.560;2023-07-29T06:57:02;20.40;80.00
13458;DHT22;6801;53.018;11.560;2023-07-29T06:59:29;20.40;80.00
13458;DHT22;6801;53.018;11.560;2023-07-29T07:01:56;20.50;80.10
13458;DHT22;6801;53.018;11.560;2023-07-29T07:04:23;20.50;80.00
13458;DHT22;6801;53.018;11.560;2023-07-29T07:06:51;20.50;80.00
13458;DHT22;6801;53.018;11.560;2023-07-29T07:09:19;20.50;80.00
13458;DHT22;6801;53.018;11.560;2023-07-29T07:11:46;20.50;80.00
13458;DHT22;6801;53.018;11.560;2023-07-29T07:14:13;20.50;80.00
13458;DHT22;6801;53.018;11.560;2023-07-29T07:16:40;20.50;80.00
13458;DHT22;6801;53.018;11.560;2023-07-29T07:19:07;20.50;80.00
13458;DHT22;6801;53.018;11.560;2023-07-29T07:21:34;20.50;80.00
13458;DHT22;6801;53.018;11.560;2023-07-29T07:24:03;20.50;80.10
13458;DHT22;6801;53.018;11.560;2023-07-29T07:26:30;20.50;80.10
13458;DHT22;6801;53.018;11.560;2023-07-29T07:28:57;20.50;80.20
13458;DHT22;6801;53.018;11.560;2023-07-29T07:31:24;20.50;80.30
13458;DHT22;6801;53.018;11.560;2023-07-29T07:33:51;20.50;80.30
13458;DHT22;6801;53.018;11.560;2023-07-29T07:36:18;20.50;80.30
13458;DHT22;6801;53.018;11.560;2023-07-29T07:38:45;20.50;80.20
13458;DHT22;6801;53.018;11.560;2023-07-29T07:41:13;20.60;80.10
13458;DHT22;6801;53.018;11.560;2023-07-29T07:43:40;20.50;80.20
13458;DHT22;6801;53.018;11.560;2023-07-29T07:46:07;20.60;80.10
13458;DHT22;6801;53.018;11.560;2023-07-29T07:48:34;20.50;80.10
13458;DHT22;6801;53.018;11.560;2023-07-29T07:51:10;20.60;80.10
13458;DHT22;6801;53.018;11.560;2023-07-29T07:53:36;20.60;80.30
13458;DHT22;6801;53.018;11.560;2023-07-29T07:56:03;20.60;80.10
13458;DHT22;6801;53.018;11.560;2023-07-29T07:58:32;20.50;80.10
13458;DHT22;6801;53.018;11.560;2023-07-29T08:01:01;20.60;80.20
13458;DHT22;6801;53.018;11.560;2023-07-29T08:03:28;20.50;80.10
13458;DHT22;6801;53.018;11.560;2023-07-29T08:05:55;20.60;80.10
13458;DHT22;6801;53.018;11.560;2023-07-29T08:08:22;20.60;80.10
13458;DHT22;6801;53.018;11.560;2023-07-29T08:10:49;20.50;80.00
13458;DHT22;6801;53.018;11.560;2023-07-29T08:13:16;20.50;80.00
13458;DHT22;6801;53.018;11.560;2023-07-29T08:15:47;20.50;80.10
13458;DHT22;6801;53.018;11.560;2023-07-29T08:18:14;20.60;80.40
13458;DHT22;6801;53.018;11.560;2023-07-29T08:20:41;20.50;80.30
13458;DHT22;6801;53.018;11.560;2023-07-29T08:23:08;20.50;80.50
13458;DHT22;6801;53.018;11.560;2023-07-29T08:25:35;20.60;80.60
13458;DHT22;6801;53.018;11.560;2023-07-29T08:28:02;20.50;80.70
13458;DHT22;6801;53.018;11.560;2023-07-29T08:30:30;20.50;80.90
13458;DHT22;6801;53.018;11.560;2023-07-29T08:32:59;20.50;81.00
13458;DHT22;6801;53.018;11.560;2023-07-29T08:35:26;20.50;81.10
13458;DHT22;6801;53.018;11.560;2023-07-29T08:37:53;20.50;81.00
13458;DHT22;6801;53.018;11.560;2023-07-29T08:40:27;20.50;80.90
13458;DHT22;6801;53.018;11.560;2023-07-29T08:42:57;20.50;81.00
13458;DHT22;6801;53.018;11.560;2023-07-29T08:45:25;20.50;81.10
13458;DHT22;6801;53.018;11.560;2023-07-29T08:47:54;20.50;81.20
13458;DHT22;6801;53.018;11.560;2023-07-29T08:50:26;20.50;81.10
13458;DHT22;6801;53.018;11.560;2023-07-29T08:52:53;20.50;81.20
13458;DHT22;6801;53.018;11.560;2023-07-29T08:55:21;20.50;81.20
13458;DHT22;6801;53.018;11.560;2023-07-29T08:57:48;20.40;81.20
13458;DHT22;6801;53.018;11.560;2023-07-29T09:00:15;20.50;81.30
13458;DHT22;6801;53.018;11.560;2023-07-29T09:02:42;20.50;81.30
13458;DHT22;6801;53.018;11.560;2023-07-29T09:05:09;20.40;81.30
13458;DHT22;6801;53.018;11.560;2023-07-29T09:07:38;20.40;81.40
13458;DHT22;6801;53.018;11.560;2023-07-29T09:10:09;20.40;81.40
13458;DHT22;6801;53.018;11.560;2023-07-29T09:12:37;20.40;81.50
13458;DHT22;6801;53.018;11.560;2023-07-29T09:15:04;20.40;81.40
13458;DHT22;6801;53.018;11.560;2023-07-29T09:17:32;20.40;81.40
13458;DHT22;6801;53.018;11.560;2023-07-29T09:20:00;20.40;81.40
13458;DHT22;6801;53.018;11.560;2023-07-29T09:22:27;20.40;81.30
13458;DHT22;6801;53.018;11.560;2023-07-29T09:24:57;20.40;81.20
13458;DHT22;6801;53.018;11.560;2023-07-29T09:27:24;20.40;81.10
13458;DHT22;6801;53.018;11.560;2023-07-29T09:29:52;20.50;81.00
13458;DHT22;6801;53.018;11.560;2023-07-29T09:32:20;20.50;81.00
13458;DHT22;6801;53.018;11.560;2023-07-29T09:34:47;20.50;81.00
13458;DHT22;6801;53.018;11.560;2023-07-29T09:37:18;20.50;81.00
13458;DHT22;6801;53.018;11.560;2023-07-29T09:39:47;20.50;81.00
13458;DHT22;6801;53.018;11.560;2023-07-29T09:42:20;20.50;80.90
13458;DHT22;6801;53.018;11.560;2023-07-29T09:44:48;20.60;81.00
13458;DHT22;6801;53.018;11.560;2023-07-29T09:47:20;20.60;80.90
13458;DHT22;6801;53.018;11.560;2023-07-29T09:49:48;20.70;81.00
13458;DHT22;6801;53.018;11.560;2023-07-29T09:52:16;20.70;81.00
13458;DHT22;6801;53.018;11.560;2023-07-29T09:54:43;20.70;81.20
13458;DHT22;6801;53.018;11.560;2023-07-29T09:57:11;20.70;81.20
13458;DHT22;6801;53.018;11.560;2023-07-29T09:59:39;20.80;81.20
13458;DHT22;6801;53.018;11.560;2023-07-29T10:02:13;20.80;81.40
13458;DHT22;6801;53.018;11.560;2023-07-29T10:04:41;20.90;81.50
13458;DHT22;6801;53.018;11.560;2023-07-29T10:07:09;20.90;81.50
13458;DHT22;6801;53.018;11.560;2023-07-29T10:09:37;21.00;81.60
13458;DHT22;6801;53.018;11.560;2023-07-29T10:12:06;21.00;81.60
13458;DHT22;6801;53.018;11.560;2023-07-29T10:14:33;21.00;81.40
13458;DHT22;6801;53.018;11.560;2023-07-29T10:17:02;21.10;81.40
13458;DHT22;6801;53.018;11.560;2023-07-29T10:19:30;21.20;81.50
13458;DHT22;6801;53.018;11.560;2023-07-29T10:21:59;21.30;81.50
13458;DHT22;6801;53.018;11.560;2023-07-29T10:24:30;21.30;81.50
13458;DHT22;6801;53.018;11.560;2023-07-29T10:26:59;21.40;81.30
13458;DHT22;6801;53.018;11.560;2023-07-29T10:29:30;21.50;81.10
13458;DHT22;6801;53.018;11.560;2023-07-29T10:31:59;21.50;81.10
13458;DHT22;6801;53.018;11.560;2023-07-29T10:34:29;21.50;80.90
13458;DHT22;6801;53.018;11.560;2023-07-29T10:36:56;21.60;80.90
13458;DHT22;6801;53.018;11.560;2023-07-29T10:39:25;21.70;80.90
13458;DHT22;6801;53.018;11.560;2023-07-29T10:41:56;21.80;81.00
13458;DHT22;6801;53.018;11.560;2023-07-29T10:44:45;21.90;80.90
13458;DHT22;6801;53.018;11.560;2023-07-29T10:47:15;22.00;80.80
13458;DHT22;6801;53.018;11.560;2023-07-29T10:49:44;22.00;80.60
13458;DHT22;6801;53.018;11.560;2023-07-29T10:52:13;22.10;80.60
13458;DHT22;6801;53.018;11.560;2023-07-29T10:54:45;22.20;80.50
13458;DHT22;6801;53.018;11.560;2023-07-29T10:57:13;22.20;80.40
13458;DHT22;6801;53.018;11.560;2023-07-29T10:59:41;22.30;80.30
13458;DHT22;6801;53.018;11.560;2023-07-29T11:02:17;22.40;80.30
13458;DHT22;6801;53.018;11.560;2023-07-29T11:04:50;22.50;80.30
13458;DHT22;6801;53.018;11.560;2023-07-29T11:07:21;22.50;80.40
13458;DHT22;6801;53.018;11.560;2023-07-29T11:09:57;22.60;80.20
13458;DHT22;6801;53.018;11.560;2023-07-29T11:12:40;22.60;80.00
13458;DHT22;6801;53.018;11.560;2023-07-29T11:15:13;22.70;80.20
13458;DHT22;6801;53.018;11.560;2023-07-29T11:17:42;22.70;79.80
13458;DHT22;6801;53.018;11.560;2023-07-29T11:20:12;22.80;79.80
13458;DHT22;6801;53.018;11.560;2023-07-29T11:22:39;22.80;79.80
13458;DHT22;6801;53.018;11.560;2023-07-29T11:25:08;22.90;80.00
13458;DHT22;6801;53.018;11.560;2023-07-29T11:27:36;22.90;80.00
13458;DHT22;6801;53.018;11.560;2023-07-29T11:30:04;23.00;80.10
13458;DHT22;6801;53.018;11.560;2023-07-29T11:32:32;23.00;79.80
13458;DHT22;6801;53.018;11.560;2023-07-29T11:35:04;23.00;79.60
13458;DHT22;6801;53.018;11.560;2023-07-29T11:37:33;23.10;79.60
13458;DHT22;6801;53.018;11.560;2023-07-29T11:40:00;23.10;79.20
13458;DHT22;6801;53.018;11.560;2023-07-29T11:42:28;23.10;78.90
13458;DHT22;6801;53.018;11.560;2023-07-29T11:44:56;23.10;78.80
13458;DHT22;6801;53.018;11.560;2023-07-29T11:47:25;23.20;78.60
13458;DHT22;6801;53.018;11.560;2023-07-29T11:49:52;23.20;78.60
13458;DHT22;6801;53.018;11.560;2023-07-29T11:52:19;23.20;78.70
13458;DHT22;6801;53.018;11.560;2023-07-29T11:54:49;23.30;78.50
13458;DHT22;6801;53.018;11.560;2023-07-29T11:57:17;23.30;78.70
13458;DHT22;6801;53.018;11.560;2023-07-29T11:59:45;23.30;78.70
13458;DHT22;6801;53.018;11.560;2023-07-29T12:02:15;23.40;78.60
13458;DHT22;6801;53.018;11.560;2023-07-29T12:04:44;23.40;78.70
13458;DHT22;6801;53.018;11.560;2023-07-29T12:07:12;23.40;78.60
13458;DHT22;6801;53.018;11.560;2023-07-29T12:09:40;23.40;78.80
13458;DHT22;6801;53.018;11.560;2023-07-29T12:12:09;23.40;78.80
13458;DHT22;6801;53.018;11.560;2023-07-29T12:14:36;23.50;78.80
13458;DHT22;6801;53.018;11.560;2023-07-29T12:17:05;23.50;78.80
13458;DHT22;6801;53.018;11.560;2023-07-29T12:19:33;23.50;78.50
13458;DHT22;6801;53.018;11.560;2023-07-29T12:22:01;23.50;78.50
13458;DHT22;6801;53.018;11.560;2023-07-29T12:24:29;23.60;78.20
13458;DHT22;6801;53.018;11.560;2023-07-29T12:26:57;23.70;77.80
13458;DHT22;6801;53.018;11.560;2023-07-29T12:29:26;23.70;77.60
13458;DHT22;6801;53.018;11.560;2023-07-29T12:31:57;23.70;77.40
13458;DHT22;6801;53.018;11.560;2023-07-29T12:34:26;23.70;77.40
13458;DHT22;6801;53.018;11.560;2023-07-29T12:36:55;23.80;77.30
13458;DHT22;6801;53.018;11.560;2023-07-29T12:39:24;23.80;77.00
13458;DHT22;6801;53.018;11.560;2023-07-29T12:41:52;23.80;77.00
13458;DHT22;6801;53.018;11.560;2023-07-29T12:44:20;23.80;76.60
13458;DHT22;6801;53.018;11.560;2023-07-29T12:46:48;23.70;76.30
13458;DHT22;6801;53.018;11.560;2023-07-29T12:49:16;23.90;74.20
13458;DHT22;6801;53.018;11.560;2023-07-29T12:51:43;23.80;70.90
13458;DHT22;6801;53.018;11.560;2023-07-29T12:54:10;23.70;70.20
13458;DHT22;6801;53.018;11.560;2023-07-29T12:56:37;23.40;65.60
13458;DHT22;6801;53.018;11.560;2023-07-29T12:59:05;22.90;66.60
13458;DHT22;6801;53.018;11.560;2023-07-29T13:01:32;22.60;69.20
13458;DHT22;6801;53.018;11.560;2023-07-29T13:04:00;22.50;70.70
13458;DHT22;6801;53.018;11.560;2023-07-29T13:06:27;22.30;71.30
13458;DHT22;6801;53.018;11.560;2023-07-29T13:08:54;22.10;71.30
13458;DHT22;6801;53.018;11.560;2023-07-29T13:11:21;22.00;71.50
13458;DHT22;6801;53.018;11.560;2023-07-29T13:13:49;21.90;72.00
13458;DHT22;6801;53.018;11.560;2023-07-29T13:16:16;21.80;72.90
13458;DHT22;6801;53.018;11.560;2023-07-29T13:18:43;21.70;73.50
13458;DHT22;6801;53.018;11.560;2023-07-29T13:21:12;21.80;74.20
13458;DHT22;6801;53.018;11.560;2023-07-29T13:23:39;21.70;74.80
13458;DHT22;6801;53.018;11.560;2023-07-29T13:26:06;21.80;75.10
13458;DHT22;6801;53.018;11.560;2023-07-29T13:28:33;21.80;75.20
13458;DHT22;6801;53.018;11.560;2023-07-29T13:31:01;21.90;75.10
13458;DHT22;6801;53.018;11.560;2023-07-29T13:33:28;21.90;75.20
13458;DHT22;6801;53.018;11.560;2023-07-29T13:35:59;22.00;75.10
13458;DHT22;6801;53.018;11.560;2023-07-29T13:38:29;22.00;75.10
13458;DHT22;6801;53.018;11.560;2023-07-29T13:40:56;22.10;75.30
13458;DHT22;6801;53.018;11.560;2023-07-29T13:43:23;22.20;75.50
13458;DHT22;6801;53.018;11.560;2023-07-29T13:45:50;22.30;75.70
13458;DHT22;6801;53.018;11.560;2023-07-29T13:48:18;22.40;75.80
13458;DHT22;6801;53.018;11.560;2023-07-29T13:50:45;22.50;75.80
13458;DHT22;6801;53.018;11.560;2023-07-29T13:53:12;22.50;75.70
13458;DHT22;6801;53.018;11.560;2023-07-29T13:55:40;22.60;75.70
13458;DHT22;6801;53.018;11.560;2023-07-29T13:58:07;22.70;75.60
13458;DHT22;6801;53.018;11.560;2023-07-29T14:00:34;22.80;75.70
13458;DHT22;6801;53.018;11.560;2023-07-29T14:03:01;22.80;75.90
13458;DHT22;6801;53.018;11.560;2023-07-29T14:05:28;22.90;76.30
13458;DHT22;6801;53.018;11.560;2023-07-29T14:07:55;23.00;76.60
13458;DHT22;6801;53.018;11.560;2023-07-29T14:10:22;23.10;76.40
13458;DHT22;6801;53.018;11.560;2023-07-29T14:12:51;23.10;76.60
13458;DHT22;6801;53.018;11.560;2023-07-29T14:15:18;23.20;76.80
13458;DHT22;6801;53.018;11.560;2023-07-29T14:17:45;23.30;76.70
13458;DHT22;6801;53.018;11.560;2023-07-29T14:20:13;23.40;76.90
13458;DHT22;6801;53.018;11.560;2023-07-29T14:22:40;23.50;77.10
13458;DHT22;6801;53.018;11.560;2023-07-29T14:25:07;23.50;77.00
13458;DHT22;6801;53.018;11.560;2023-07-29T14:27:35;23.60;77.10
13458;DHT22;6801;53.018;11.560;2023-07-29T14:30:04;23.70;77.10
13458;DHT22;6801;53.018;11.560;2023-07-29T14:32:31;23.70;77.30
13458;DHT22;6801;53.018;11.560;2023-07-29T14:34:58;23.80;77.50
13458;DHT22;6801;53.018;11.560;2023-07-29T14:37:26;23.80;77.20
13458;DHT22;6801;53.018;11.560;2023-07-29T14:39:52;23.90;77.30
13458;DHT22;6801;53.018;11.560;2023-07-29T14:42:20;24.00;77.40
13458;DHT22;6801;53.018;11.560;2023-07-29T14:44:48;24.00;77.50
13458;DHT22;6801;53.018;11.560;2023-07-29T14:47:16;24.10;76.60
13458;DHT22;6801;53.018;11.560;2023-07-29T14:49:44;24.20;75.90
13458;DHT22;6801;53.018;11.560;2023-07-29T14:52:11;24.20;74.80
13458;DHT22;6801;53.018;11.560;2023-07-29T14:54:38;24.20;74.70
13458;DHT22;6801;53.018;11.560;2023-07-29T14:57:06;24.30;74.50
13458;DHT22;6801;53.018;11.560;2023-07-29T14:59:33;24.20;74.10
13458;DHT22;6801;53.018;11.560;2023-07-29T15:02:00;24.30;74.10
13458;DHT22;6801;53.018;11.560;2023-07-29T15:04:28;24.40;74.30
13458;DHT22;6801;53.018;11.560;2023-07-29T15:06:55;24.30;73.10
13458;DHT22;6801;53.018;11.560;2023-07-29T15:09:23;24.20;72.60
13458;DHT22;6801;53.018;11.560;2023-07-29T15:11:51;24.20;73.40
13458;DHT22;6801;53.018;11.560;2023-07-29T15:14:18;24.10;73.90
13458;DHT22;6801;53.018;11.560;2023-07-29T15:16:45;24.10;74.20
13458;DHT22;6801;53.018;11.560;2023-07-29T15:19:12;24.10;74.60
13458;DHT22;6801;53.018;11.560;2023-07-29T15:21:41;24.10;75.10
13458;DHT22;6801;53.018;11.560;2023-07-29T15:24:08;24.10;75.30
13458;DHT22;6801;53.018;11.560;2023-07-29T15:26:35;24.10;75.40
13458;DHT22;6801;53.018;11.560;2023-07-29T15:29:02;24.10;75.40
13458;DHT22;6801;53.018;11.560;2023-07-29T15:31:29;24.20;75.80
13458;DHT22;6801;53.018;11.560;2023-07-29T15:33:56;24.20;75.90